Terminal Aerodrome Forecast
Issued by NWS

Home | Current Version | Previous Version | Text Only | Print | Product List | Glossary On
Versions: 1 2 3 4 5 6 7 8 9 10 11 12 13 14 15 16 17 18 19 20 21 22 23 24 25 26 27 28 29 30 31 32 33 34
356
FTUS43 KPAH 212333
TAFOWB
TAF
KOWB 212333Z 2200/2224 18006KT P6SM SCT040 BKN150
     FM220700 07003KT 6SM BR SCT025 OVC050
     FM220900 05004KT 4SM BR VCSH OVC010
     FM221200 06008KT 3SM SHRA BR OVC005
     FM221500 05009KT 2SM SHRA BR OVC003=

USA.gov is the U.S. government's official web portal to all federal, state and local government web resources and services.